sensor_id;sensor_type;location;lat;lon;timestamp;P1;durP1;ratioP1;P2;durP2;ratioP2
61188;SDS011;47054;39.716;2.904;2022-10-16T00:02:30;4.30;;;2.05;;
61188;SDS011;47054;39.716;2.904;2022-10-16T00:05:15;5.13;;;2.30;;
61188;SDS011;47054;39.716;2.904;2022-10-16T00:07:59;4.18;;;1.92;;
61188;SDS011;47054;39.716;2.904;2022-10-16T00:10:44;4.32;;;2.00;;
61188;SDS011;47054;39.716;2.904;2022-10-16T00:13:28;4.47;;;2.30;;
61188;SDS011;47054;39.716;2.904;2022-10-16T00:16:13;5.28;;;2.30;;
61188;SDS011;47054;39.716;2.904;2022-10-16T00:18:59;4.88;;;1.92;;
61188;SDS011;47054;39.716;2.904;2022-10-16T00:21:43;6.93;;;2.35;;
61188;SDS011;47054;39.716;2.904;2022-10-16T00:24:47;3.67;;;2.00;;
61188;SDS011;47054;39.716;2.904;2022-10-16T00:27:32;6.15;;;2.00;;
61188;SDS011;47054;39.716;2.904;2022-10-16T00:30:18;3.67;;;1.90;;
61188;SDS011;47054;39.716;2.904;2022-10-16T00:33:02;3.50;;;2.00;;
61188;SDS011;47054;39.716;2.904;2022-10-16T00:35:47;6.38;;;2.08;;
61188;SDS011;47054;39.716;2.904;2022-10-16T00:38:32;5.07;;;2.10;;
61188;SDS011;47054;39.716;2.904;2022-10-16T00:41:18;8.18;;;2.15;;
61188;SDS011;47054;39.716;2.904;2022-10-16T00:44:40;4.80;;;2.20;;
61188;SDS011;47054;39.716;2.904;2022-10-16T00:47:30;4.75;;;2.20;;
61188;SDS011;47054;39.716;2.904;2022-10-16T00:50:24;3.60;;;1.92;;
61188;SDS011;47054;39.716;2.904;2022-10-16T00:53:13;3.85;;;1.98;;
61188;SDS011;47054;39.716;2.904;2022-10-16T00:55:59;4.85;;;2.13;;
61188;SDS011;47054;39.716;2.904;2022-10-16T00:58:43;4.00;;;2.25;;
61188;SDS011;47054;39.716;2.904;2022-10-16T01:01:28;5.00;;;2.10;;
61188;SDS011;47054;39.716;2.904;2022-10-16T01:04:13;4.22;;;1.90;;
61188;SDS011;47054;39.716;2.904;2022-10-16T01:20:31;4.63;;;2.00;;
61188;SDS011;47054;39.716;2.904;2022-10-16T01:26:01;5.95;;;2.58;;
61188;SDS011;47054;39.716;2.904;2022-10-16T01:30:07;4.63;;;2.00;;
61188;SDS011;47054;39.716;2.904;2022-10-16T01:38:25;5.88;;;1.92;;
61188;SDS011;47054;39.716;2.904;2022-10-16T01:41:55;3.10;;;1.95;;
61188;SDS011;47054;39.716;2.904;2022-10-16T01:44:38;3.85;;;2.08;;
61188;SDS011;47054;39.716;2.904;2022-10-16T01:47:25;4.53;;;1.80;;
61188;SDS011;47054;39.716;2.904;2022-10-16T01:50:12;5.32;;;1.88;;
61188;SDS011;47054;39.716;2.904;2022-10-16T01:52:58;3.97;;;2.13;;
61188;SDS011;47054;39.716;2.904;2022-10-16T01:55:46;5.13;;;2.38;;
61188;SDS011;47054;39.716;2.904;2022-10-16T01:58:33;6.10;;;2.00;;
61188;SDS011;47054;39.716;2.904;2022-10-16T02:01:22;3.47;;;1.92;;
61188;SDS011;47054;39.716;2.904;2022-10-16T02:04:12;4.22;;;1.80;;
61188;SDS011;47054;39.716;2.904;2022-10-16T02:06:59;4.30;;;2.03;;
61188;SDS011;47054;39.716;2.904;2022-10-16T02:10:04;5.53;;;1.95;;
61188;SDS011;47054;39.716;2.904;2022-10-16T02:12:50;3.30;;;2.00;;
61188;SDS011;47054;39.716;2.904;2022-10-16T02:15:40;3.03;;;1.63;;
61188;SDS011;47054;39.716;2.904;2022-10-16T02:18:25;3.65;;;1.92;;
61188;SDS011;47054;39.716;2.904;2022-10-16T02:21:23;3.70;;;2.15;;
61188;SDS011;47054;39.716;2.904;2022-10-16T02:26:59;3.25;;;1.90;;
61188;SDS011;47054;39.716;2.904;2022-10-16T02:29:50;3.45;;;1.98;;
61188;SDS011;47054;39.716;2.904;2022-10-16T02:32:43;4.38;;;2.00;;
61188;SDS011;47054;39.716;2.904;2022-10-16T02:35:30;3.67;;;1.85;;
61188;SDS011;47054;39.716;2.904;2022-10-16T02:38:15;4.05;;;1.73;;
61188;SDS011;47054;39.716;2.904;2022-10-16T02:41:02;7.57;;;2.05;;
61188;SDS011;47054;39.716;2.904;2022-10-16T02:43:48;3.47;;;2.05;;
61188;SDS011;47054;39.716;2.904;2022-10-16T02:46:33;5.00;;;2.97;;
61188;SDS011;47054;39.716;2.904;2022-10-16T02:49:18;2.65;;;1.80;;
61188;SDS011;47054;39.716;2.904;2022-10-16T02:52:03;4.80;;;1.90;;
61188;SDS011;47054;39.716;2.904;2022-10-16T02:54:49;3.72;;;1.98;;
61188;SDS011;47054;39.716;2.904;2022-10-16T02:57:33;4.95;;;1.92;;
61188;SDS011;47054;39.716;2.904;2022-10-16T03:00:17;3.03;;;1.70;;
61188;SDS011;47054;39.716;2.904;2022-10-16T03:03:02;4.55;;;1.92;;
61188;SDS011;47054;39.716;2.904;2022-10-16T03:05:47;5.82;;;1.77;;
61188;SDS011;47054;39.716;2.904;2022-10-16T03:08:31;3.17;;;1.70;;
61188;SDS011;47054;39.716;2.904;2022-10-16T03:11:16;2.85;;;1.83;;
61188;SDS011;47054;39.716;2.904;2022-10-16T03:14:00;4.82;;;1.90;;
61188;SDS011;47054;39.716;2.904;2022-10-16T03:16:45;5.90;;;1.88;;
61188;SDS011;47054;39.716;2.904;2022-10-16T03:19:29;3.05;;;1.75;;
61188;SDS011;47054;39.716;2.904;2022-10-16T03:22:13;3.33;;;1.88;;
61188;SDS011;47054;39.716;2.904;2022-10-16T03:24:58;3.00;;;1.70;;
61188;SDS011;47054;39.716;2.904;2022-10-16T03:27:43;2.78;;;1.80;;
61188;SDS011;47054;39.716;2.904;2022-10-16T03:30:27;2.58;;;1.60;;
61188;SDS011;47054;39.716;2.904;2022-10-16T03:33:11;2.92;;;1.50;;
61188;SDS011;47054;39.716;2.904;2022-10-16T03:35:56;3.85;;;1.98;;
61188;SDS011;47054;39.716;2.904;2022-10-16T03:38:40;3.67;;;1.90;;
61188;SDS011;47054;39.716;2.904;2022-10-16T03:41:25;3.08;;;1.70;;
61188;SDS011;47054;39.716;2.904;2022-10-16T03:44:09;3.30;;;1.60;;
61188;SDS011;47054;39.716;2.904;2022-10-16T03:46:54;5.15;;;1.98;;
61188;SDS011;47054;39.716;2.904;2022-10-16T03:49:38;3.45;;;1.98;;
61188;SDS011;47054;39.716;2.904;2022-10-16T03:52:23;4.10;;;1.70;;
61188;SDS011;47054;39.716;2.904;2022-10-16T03:55:08;5.40;;;1.95;;
61188;SDS011;47054;39.716;2.904;2022-10-16T03:57:52;3.97;;;1.80;;
61188;SDS011;47054;39.716;2.904;2022-10-16T04:00:44;3.55;;;1.80;;
61188;SDS011;47054;39.716;2.904;2022-10-16T04:03:31;3.55;;;1.70;;
61188;SDS011;47054;39.716;2.904;2022-10-16T04:06:16;3.13;;;1.80;;
61188;SDS011;47054;39.716;2.904;2022-10-16T04:09:00;4.15;;;1.70;;
61188;SDS011;47054;39.716;2.904;2022-10-16T04:11:45;2.72;;;1.67;;
61188;SDS011;47054;39.716;2.904;2022-10-16T04:14:30;3.22;;;1.70;;
61188;SDS011;47054;39.716;2.904;2022-10-16T04:17:14;2.83;;;1.70;;
61188;SDS011;47054;39.716;2.904;2022-10-16T04:19:58;4.20;;;1.80;;
61188;SDS011;47054;39.716;2.904;2022-10-16T04:22:43;6.18;;;2.38;;
61188;SDS011;47054;39.716;2.904;2022-10-16T04:25:28;3.05;;;1.80;;
61188;SDS011;47054;39.716;2.904;2022-10-16T04:28:13;3.28;;;1.70;;
61188;SDS011;47054;39.716;2.904;2022-10-16T04:30:58;3.85;;;1.73;;
61188;SDS011;47054;39.716;2.904;2022-10-16T04:33:43;2.65;;;1.85;;
61188;SDS011;47054;39.716;2.904;2022-10-16T04:36:27;4.13;;;2.10;;
61188;SDS011;47054;39.716;2.904;2022-10-16T04:39:12;3.60;;;2.00;;
61188;SDS011;47054;39.716;2.904;2022-10-16T04:41:56;3.30;;;1.70;;
61188;SDS011;47054;39.716;2.904;2022-10-16T04:44:41;3.88;;;1.90;;
61188;SDS011;47054;39.716;2.904;2022-10-16T04:47:25;3.30;;;1.70;;
61188;SDS011;47054;39.716;2.904;2022-10-16T04:50:09;2.75;;;1.70;;
61188;SDS011;47054;39.716;2.904;2022-10-16T04:52:54;3.92;;;1.85;;
61188;SDS011;47054;39.716;2.904;2022-10-16T04:55:39;3.58;;;2.00;;
61188;SDS011;47054;39.716;2.904;2022-10-16T04:58:25;3.30;;;1.90;;
61188;SDS011;47054;39.716;2.904;2022-10-16T05:01:09;3.25;;;1.65;;
61188;SDS011;47054;39.716;2.904;2022-10-16T05:03:54;4.35;;;1.80;;
61188;SDS011;47054;39.716;2.904;2022-10-16T05:06:38;2.10;;;1.40;;
61188;SDS011;47054;39.716;2.904;2022-10-16T05:09:23;3.17;;;1.70;;
61188;SDS011;47054;39.716;2.904;2022-10-16T05:12:07;3.30;;;1.77;;
61188;SDS011;47054;39.716;2.904;2022-10-16T05:14:51;3.60;;;1.90;;
61188;SDS011;47054;39.716;2.904;2022-10-16T05:17:36;4.10;;;1.80;;
61188;SDS011;47054;39.716;2.904;2022-10-16T05:20:21;4.10;;;1.83;;
61188;SDS011;47054;39.716;2.904;2022-10-16T05:23:06;3.92;;;1.85;;
61188;SDS011;47054;39.716;2.904;2022-10-16T05:25:52;6.20;;;1.70;;
61188;SDS011;47054;39.716;2.904;2022-10-16T05:28:42;3.72;;;1.48;;
61188;SDS011;47054;39.716;2.904;2022-10-16T05:31:26;2.67;;;1.60;;
61188;SDS011;47054;39.716;2.904;2022-10-16T05:34:11;4.90;;;1.73;;
61188;SDS011;47054;39.716;2.904;2022-10-16T05:36:55;2.88;;;1.70;;
61188;SDS011;47054;39.716;2.904;2022-10-16T05:39:41;4.50;;;1.95;;
61188;SDS011;47054;39.716;2.904;2022-10-16T05:42:25;2.63;;;1.70;;
61188;SDS011;47054;39.716;2.904;2022-10-16T05:45:10;2.65;;;1.60;;
61188;SDS011;47054;39.716;2.904;2022-10-16T05:47:56;3.38;;;1.60;;
61188;SDS011;47054;39.716;2.904;2022-10-16T05:50:40;3.42;;;1.80;;
61188;SDS011;47054;39.716;2.904;2022-10-16T05:53:25;3.45;;;1.60;;
61188;SDS011;47054;39.716;2.904;2022-10-16T05:56:11;3.17;;;1.60;;
61188;SDS011;47054;39.716;2.904;2022-10-16T05:58:57;2.67;;;1.65;;
61188;SDS011;47054;39.716;2.904;2022-10-16T06:01:42;4.38;;;1.40;;
61188;SDS011;47054;39.716;2.904;2022-10-16T06:04:27;3.08;;;1.50;;
61188;SDS011;47054;39.716;2.904;2022-10-16T06:07:12;5.30;;;1.80;;
61188;SDS011;47054;39.716;2.904;2022-10-16T06:09:56;2.97;;;1.58;;
61188;SDS011;47054;39.716;2.904;2022-10-16T06:12:41;2.40;;;1.60;;
61188;SDS011;47054;39.716;2.904;2022-10-16T06:15:25;4.43;;;1.90;;
61188;SDS011;47054;39.716;2.904;2022-10-16T06:18:10;3.17;;;1.75;;
61188;SDS011;47054;39.716;2.904;2022-10-16T06:20:55;2.63;;;1.52;;
61188;SDS011;47054;39.716;2.904;2022-10-16T06:23:40;5.25;;;1.70;;
61188;SDS011;47054;39.716;2.904;2022-10-16T06:26:25;5.10;;;1.55;;
61188;SDS011;47054;39.716;2.904;2022-10-16T06:29:11;5.20;;;1.50;;
61188;SDS011;47054;39.716;2.904;2022-10-16T06:31:56;3.97;;;1.70;;
61188;SDS011;47054;39.716;2.904;2022-10-16T06:34:40;4.82;;;1.90;;
61188;SDS011;47054;39.716;2.904;2022-10-16T06:37:26;3.15;;;1.63;;
61188;SDS011;47054;39.716;2.904;2022-10-16T06:40:11;2.75;;;1.70;;
61188;SDS011;47054;39.716;2.904;2022-10-16T06:42:58;3.00;;;1.70;;
61188;SDS011;47054;39.716;2.904;2022-10-16T06:45:43;5.38;;;1.60;;
61188;SDS011;47054;39.716;2.904;2022-10-16T06:48:28;2.50;;;1.50;;
61188;SDS011;47054;39.716;2.904;2022-10-16T06:51:14;5.20;;;1.70;;
61188;SDS011;47054;39.716;2.904;2022-10-16T06:53:59;2.25;;;1.30;;
61188;SDS011;47054;39.716;2.904;2022-10-16T06:56:44;2.90;;;1.60;;
61188;SDS011;47054;39.716;2.904;2022-10-16T06:59:28;4.18;;;1.60;;
61188;SDS011;47054;39.716;2.904;2022-10-16T07:02:13;3.53;;;1.60;;
61188;SDS011;47054;39.716;2.904;2022-10-16T07:04:57;3.35;;;1.77;;
61188;SDS011;47054;39.716;2.904;2022-10-16T07:07:42;6.95;;;1.90;;
61188;SDS011;47054;39.716;2.904;2022-10-16T07:10:26;4.43;;;1.77;;
61188;SDS011;47054;39.716;2.904;2022-10-16T07:13:11;2.95;;;1.70;;
61188;SDS011;47054;39.716;2.904;2022-10-16T07:15:57;4.55;;;1.83;;
61188;SDS011;47054;39.716;2.904;2022-10-16T07:18:42;3.85;;;1.50;;
61188;SDS011;47054;39.716;2.904;2022-10-16T07:21:30;4.28;;;1.73;;
61188;SDS011;47054;39.716;2.904;2022-10-16T07:24:19;3.85;;;1.48;;
61188;SDS011;47054;39.716;2.904;2022-10-16T07:27:04;2.60;;;1.70;;
61188;SDS011;47054;39.716;2.904;2022-10-16T07:29:49;2.63;;;1.50;;
61188;SDS011;47054;39.716;2.904;2022-10-16T07:32:33;5.28;;;1.73;;
61188;SDS011;47054;39.716;2.904;2022-10-16T07:35:18;5.80;;;1.80;;
61188;SDS011;47054;39.716;2.904;2022-10-16T07:38:03;2.70;;;1.70;;
61188;SDS011;47054;39.716;2.904;2022-10-16T07:40:48;3.55;;;1.65;;
61188;SDS011;47054;39.716;2.904;2022-10-16T07:43:32;6.10;;;2.15;;
61188;SDS011;47054;39.716;2.904;2022-10-16T07:46:18;4.25;;;1.90;;
61188;SDS011;47054;39.716;2.904;2022-10-16T07:49:04;3.25;;;1.85;;
61188;SDS011;47054;39.716;2.904;2022-10-16T07:51:48;4.78;;;2.00;;
61188;SDS011;47054;39.716;2.904;2022-10-16T07:54:33;3.83;;;1.80;;
61188;SDS011;47054;39.716;2.904;2022-10-16T07:57:18;5.38;;;2.22;;
61188;SDS011;47054;39.716;2.904;2022-10-16T08:00:04;4.50;;;2.03;;
61188;SDS011;47054;39.716;2.904;2022-10-16T08:05:44;5.13;;;1.80;;
61188;SDS011;47054;39.716;2.904;2022-10-16T08:08:30;9.02;;;2.30;;
61188;SDS011;47054;39.716;2.904;2022-10-16T08:11:15;4.82;;;2.20;;
61188;SDS011;47054;39.716;2.904;2022-10-16T08:14:00;5.97;;;2.00;;
61188;SDS011;47054;39.716;2.904;2022-10-16T08:16:45;9.32;;;2.30;;
61188;SDS011;47054;39.716;2.904;2022-10-16T08:19:29;6.38;;;2.67;;
61188;SDS011;47054;39.716;2.904;2022-10-16T08:22:15;11.02;;;2.72;;
61188;SDS011;47054;39.716;2.904;2022-10-16T08:25:00;5.75;;;2.25;;
61188;SDS011;47054;39.716;2.904;2022-10-16T08:27:44;5.68;;;2.45;;
61188;SDS011;47054;39.716;2.904;2022-10-16T08:30:29;8.68;;;2.38;;
61188;SDS011;47054;39.716;2.904;2022-10-16T08:33:13;14.10;;;2.50;;
61188;SDS011;47054;39.716;2.904;2022-10-16T08:35:58;5.75;;;2.50;;
61188;SDS011;47054;39.716;2.904;2022-10-16T08:38:43;7.70;;;2.58;;
61188;SDS011;47054;39.716;2.904;2022-10-16T08:50:36;5.22;;;2.30;;
61188;SDS011;47054;39.716;2.904;2022-10-16T08:53:27;4.47;;;2.42;;
61188;SDS011;47054;39.716;2.904;2022-10-16T08:56:15;5.80;;;2.50;;
61188;SDS011;47054;39.716;2.904;2022-10-16T08:59:02;5.25;;;2.50;;
61188;SDS011;47054;39.716;2.904;2022-10-16T09:01:54;6.05;;;2.55;;
61188;SDS011;47054;39.716;2.904;2022-10-16T09:11:20;6.45;;;2.50;;
61188;SDS011;47054;39.716;2.904;2022-10-16T09:23:28;6.82;;;2.97;;
61188;SDS011;47054;39.716;2.904;2022-10-16T09:26:15;6.50;;;3.78;;
61188;SDS011;47054;39.716;2.904;2022-10-16T09:29:01;7.43;;;3.92;;
61188;SDS011;47054;39.716;2.904;2022-10-16T09:31:47;7.25;;;4.13;;
61188;SDS011;47054;39.716;2.904;2022-10-16T09:34:40;6.82;;;4.53;;
61188;SDS011;47054;39.716;2.904;2022-10-16T09:37:28;9.40;;;4.75;;
61188;SDS011;47054;39.716;2.904;2022-10-16T09:40:13;5.97;;;4.22;;
61188;SDS011;47054;39.716;2.904;2022-10-16T09:43:25;8.75;;;4.20;;
61188;SDS011;47054;39.716;2.904;2022-10-16T09:46:21;10.60;;;4.97;;
61188;SDS011;47054;39.716;2.904;2022-10-16T09:52:12;13.43;;;5.30;;
61188;SDS011;47054;39.716;2.904;2022-10-16T09:57:52;13.80;;;5.88;;
61188;SDS011;47054;39.716;2.904;2022-10-16T10:00:37;12.07;;;6.38;;
61188;SDS011;47054;39.716;2.904;2022-10-16T10:03:39;12.07;;;5.72;;
61188;SDS011;47054;39.716;2.904;2022-10-16T10:06:26;9.98;;;5.10;;
61188;SDS011;47054;39.716;2.904;2022-10-16T10:09:17;12.55;;;5.80;;
61188;SDS011;47054;39.716;2.904;2022-10-16T10:12:03;12.13;;;5.60;;
61188;SDS011;47054;39.716;2.904;2022-10-16T10:15:03;10.07;;;5.60;;
61188;SDS011;47054;39.716;2.904;2022-10-16T10:17:52;19.48;;;6.13;;
61188;SDS011;47054;39.716;2.904;2022-10-16T10:20:38;13.93;;;5.55;;
61188;SDS011;47054;39.716;2.904;2022-10-16T10:23:24;13.10;;;5.70;;
61188;SDS011;47054;39.716;2.904;2022-10-16T10:26:15;16.15;;;6.72;;
61188;SDS011;47054;39.716;2.904;2022-10-16T10:29:17;18.67;;;5.50;;
61188;SDS011;47054;39.716;2.904;2022-10-16T10:35:59;20.10;;;5.50;;
61188;SDS011;47054;39.716;2.904;2022-10-16T10:44:27;33.03;;;10.70;;
61188;SDS011;47054;39.716;2.904;2022-10-16T10:50:13;42.17;;;11.57;;
61188;SDS011;47054;39.716;2.904;2022-10-16T11:05:47;37.30;;;10.23;;
61188;SDS011;47054;39.716;2.904;2022-10-16T11:11:56;34.53;;;9.40;;
61188;SDS011;47054;39.716;2.904;2022-10-16T11:15:31;34.10;;;8.40;;
61188;SDS011;47054;39.716;2.904;2022-10-16T11:18:21;25.95;;;8.02;;
61188;SDS011;47054;39.716;2.904;2022-10-16T11:21:11;23.00;;;7.22;;
61188;SDS011;47054;39.716;2.904;2022-10-16T11:24:04;17.52;;;6.72;;
61188;SDS011;47054;39.716;2.904;2022-10-16T11:27:37;11.18;;;4.97;;
61188;SDS011;47054;39.716;2.904;2022-10-16T11:30:55;19.55;;;5.50;;
61188;SDS011;47054;39.716;2.904;2022-10-16T11:36:39;13.75;;;4.75;;
61188;SDS011;47054;39.716;2.904;2022-10-16T11:39:37;10.20;;;4.63;;
61188;SDS011;47054;39.716;2.904;2022-10-16T11:42:46;9.43;;;4.43;;
61188;SDS011;47054;39.716;2.904;2022-10-16T11:55:33;9.07;;;3.83;;
61188;SDS011;47054;39.716;2.904;2022-10-16T12:07:13;24.58;;;6.60;;
61188;SDS011;47054;39.716;2.904;2022-10-16T12:10:10;41.70;;;11.97;;
61188;SDS011;47054;39.716;2.904;2022-10-16T12:13:03;30.17;;;8.60;;
61188;SDS011;47054;39.716;2.904;2022-10-16T12:15:49;20.58;;;6.25;;
61188;SDS011;47054;39.716;2.904;2022-10-16T12:18:33;16.90;;;5.97;;
61188;SDS011;47054;39.716;2.904;2022-10-16T12:21:18;18.42;;;6.90;;
61188;SDS011;47054;39.716;2.904;2022-10-16T12:27:30;12.82;;;5.30;;
61188;SDS011;47054;39.716;2.904;2022-10-16T12:30:20;12.80;;;4.57;;
61188;SDS011;47054;39.716;2.904;2022-10-16T12:36:29;10.18;;;4.32;;
61188;SDS011;47054;39.716;2.904;2022-10-16T12:39:22;13.25;;;4.45;;
61188;SDS011;47054;39.716;2.904;2022-10-16T12:42:20;9.25;;;3.88;;
61188;SDS011;47054;39.716;2.904;2022-10-16T12:45:25;9.40;;;3.42;;
61188;SDS011;47054;39.716;2.904;2022-10-16T12:48:19;7.80;;;3.50;;
61188;SDS011;47054;39.716;2.904;2022-10-16T12:51:19;7.97;;;3.92;;
61188;SDS011;47054;39.716;2.904;2022-10-16T12:54:19;8.57;;;3.90;;
61188;SDS011;47054;39.716;2.904;2022-10-16T13:03:28;10.07;;;3.95;;
61188;SDS011;47054;39.716;2.904;2022-10-16T13:06:19;8.27;;;3.72;;
61188;SDS011;47054;39.716;2.904;2022-10-16T13:24:56;6.82;;;3.28;;
61188;SDS011;47054;39.716;2.904;2022-10-16T13:28:12;8.25;;;2.90;;
61188;SDS011;47054;39.716;2.904;2022-10-16T13:30:58;7.70;;;2.85;;
61188;SDS011;47054;39.716;2.904;2022-10-16T13:33:47;11.48;;;3.03;;
61188;SDS011;47054;39.716;2.904;2022-10-16T13:36:46;4.70;;;2.75;;
61188;SDS011;47054;39.716;2.904;2022-10-16T13:39:36;8.07;;;2.60;;
61188;SDS011;47054;39.716;2.904;2022-10-16T13:42:23;8.00;;;2.92;;
61188;SDS011;47054;39.716;2.904;2022-10-16T13:45:22;9.95;;;3.08;;
61188;SDS011;47054;39.716;2.904;2022-10-16T13:48:09;6.53;;;2.55;;
61188;SDS011;47054;39.716;2.904;2022-10-16T13:50:58;8.13;;;2.65;;
61188;SDS011;47054;39.716;2.904;2022-10-16T13:54:03;7.68;;;2.60;;
61188;SDS011;47054;39.716;2.904;2022-10-16T13:56:47;6.75;;;2.38;;
61188;SDS011;47054;39.716;2.904;2022-10-16T13:59:33;6.53;;;2.55;;
61188;SDS011;47054;39.716;2.904;2022-10-16T14:02:25;9.45;;;2.60;;
61188;SDS011;47054;39.716;2.904;2022-10-16T14:05:13;7.85;;;2.38;;
61188;SDS011;47054;39.716;2.904;2022-10-16T14:07:59;4.78;;;2.15;;
61188;SDS011;47054;39.716;2.904;2022-10-16T14:10:47;7.45;;;2.50;;
61188;SDS011;47054;39.716;2.904;2022-10-16T14:13:37;6.95;;;2.60;;
61188;SDS011;47054;39.716;2.904;2022-10-16T14:16:25;7.53;;;2.13;;
61188;SDS011;47054;39.716;2.904;2022-10-16T14:22:19;7.05;;;2.40;;
61188;SDS011;47054;39.716;2.904;2022-10-16T14:25:20;6.25;;;2.70;;
61188;SDS011;47054;39.716;2.904;2022-10-16T14:28:21;6.55;;;2.40;;
61188;SDS011;47054;39.716;2.904;2022-10-16T14:31:21;6.80;;;2.17;;
61188;SDS011;47054;39.716;2.904;2022-10-16T14:37:27;5.38;;;2.20;;
61188;SDS011;47054;39.716;2.904;2022-10-16T14:40:14;8.75;;;2.20;;
61188;SDS011;47054;39.716;2.904;2022-10-16T14:43:00;5.35;;;2.20;;
61188;SDS011;47054;39.716;2.904;2022-10-16T14:46:09;9.57;;;2.30;;
61188;SDS011;47054;39.716;2.904;2022-10-16T14:51:47;5.00;;;2.00;;
61188;SDS011;47054;39.716;2.904;2022-10-16T14:54:32;7.78;;;2.63;;
61188;SDS011;47054;39.716;2.904;2022-10-16T14:57:22;7.85;;;2.63;;
61188;SDS011;47054;39.716;2.904;2022-10-16T15:00:13;7.15;;;2.28;;
61188;SDS011;47054;39.716;2.904;2022-10-16T15:03:00;12.65;;;2.45;;
61188;SDS011;47054;39.716;2.904;2022-10-16T15:05:44;9.93;;;2.75;;
61188;SDS011;47054;39.716;2.904;2022-10-16T15:08:29;8.57;;;2.28;;
61188;SDS011;47054;39.716;2.904;2022-10-16T15:11:17;8.60;;;2.35;;
61188;SDS011;47054;39.716;2.904;2022-10-16T15:14:03;5.10;;;2.00;;
61188;SDS011;47054;39.716;2.904;2022-10-16T15:16:48;7.10;;;2.35;;
61188;SDS011;47054;39.716;2.904;2022-10-16T15:19:33;3.85;;;1.90;;
61188;SDS011;47054;39.716;2.904;2022-10-16T15:22:19;6.35;;;2.17;;
61188;SDS011;47054;39.716;2.904;2022-10-16T15:25:19;5.82;;;2.33;;
61188;SDS011;47054;39.716;2.904;2022-10-16T15:31:01;9.80;;;2.70;;
61188;SDS011;47054;39.716;2.904;2022-10-16T15:33:52;8.85;;;3.58;;
61188;SDS011;47054;39.716;2.904;2022-10-16T15:36:40;10.02;;;2.53;;
61188;SDS011;47054;39.716;2.904;2022-10-16T15:39:25;6.85;;;2.83;;
61188;SDS011;47054;39.716;2.904;2022-10-16T15:42:11;7.15;;;2.60;;
61188;SDS011;47054;39.716;2.904;2022-10-16T15:44:56;6.93;;;2.50;;
61188;SDS011;47054;39.716;2.904;2022-10-16T15:47:41;6.88;;;2.47;;
61188;SDS011;47054;39.716;2.904;2022-10-16T15:50:26;7.60;;;2.35;;
61188;SDS011;47054;39.716;2.904;2022-10-16T15:53:11;7.55;;;2.47;;
61188;SDS011;47054;39.716;2.904;2022-10-16T15:55:56;6.68;;;2.20;;
61188;SDS011;47054;39.716;2.904;2022-10-16T15:58:40;3.85;;;2.20;;
61188;SDS011;47054;39.716;2.904;2022-10-16T16:01:26;10.48;;;2.85;;
61188;SDS011;47054;39.716;2.904;2022-10-16T16:04:11;6.85;;;2.47;;
61188;SDS011;47054;39.716;2.904;2022-10-16T16:06:56;7.28;;;2.47;;
61188;SDS011;47054;39.716;2.904;2022-10-16T16:09:40;14.73;;;2.55;;
61188;SDS011;47054;39.716;2.904;2022-10-16T16:12:25;6.03;;;2.60;;
61188;SDS011;47054;39.716;2.904;2022-10-16T16:15:09;10.38;;;3.08;;
61188;SDS011;47054;39.716;2.904;2022-10-16T16:17:54;6.75;;;2.70;;
61188;SDS011;47054;39.716;2.904;2022-10-16T16:20:38;7.93;;;2.88;;
61188;SDS011;47054;39.716;2.904;2022-10-16T16:23:23;7.72;;;3.55;;
61188;SDS011;47054;39.716;2.904;2022-10-16T16:26:10;8.20;;;2.80;;
61188;SDS011;47054;39.716;2.904;2022-10-16T16:29:08;7.85;;;2.30;;
61188;SDS011;47054;39.716;2.904;2022-10-16T16:31:56;9.43;;;2.85;;
61188;SDS011;47054;39.716;2.904;2022-10-16T16:34:41;6.72;;;2.80;;
61188;SDS011;47054;39.716;2.904;2022-10-16T16:37:25;7.65;;;2.75;;
61188;SDS011;47054;39.716;2.904;2022-10-16T16:40:10;9.70;;;3.10;;
61188;SDS011;47054;39.716;2.904;2022-10-16T16:42:55;7.88;;;3.17;;
61188;SDS011;47054;39.716;2.904;2022-10-16T16:45:39;8.30;;;3.40;;
61188;SDS011;47054;39.716;2.904;2022-10-16T16:48:24;8.50;;;3.45;;
61188;SDS011;47054;39.716;2.904;2022-10-16T16:51:10;11.68;;;3.45;;
61188;SDS011;47054;39.716;2.904;2022-10-16T16:53:59;9.95;;;3.55;;
61188;SDS011;47054;39.716;2.904;2022-10-16T16:56:43;7.63;;;3.28;;
61188;SDS011;47054;39.716;2.904;2022-10-16T16:59:29;6.07;;;3.00;;
61188;SDS011;47054;39.716;2.904;2022-10-16T17:02:17;6.90;;;3.38;;
61188;SDS011;47054;39.716;2.904;2022-10-16T17:05:03;9.25;;;3.42;;
61188;SDS011;47054;39.716;2.904;2022-10-16T17:07:47;9.75;;;3.33;;
61188;SDS011;47054;39.716;2.904;2022-10-16T17:10:32;7.75;;;3.10;;
61188;SDS011;47054;39.716;2.904;2022-10-16T17:13:16;6.13;;;3.08;;
61188;SDS011;47054;39.716;2.904;2022-10-16T17:16:01;9.93;;;4.05;;
61188;SDS011;47054;39.716;2.904;2022-10-16T17:18:46;7.43;;;3.38;;
61188;SDS011;47054;39.716;2.904;2022-10-16T17:21:31;6.68;;;2.97;;
61188;SDS011;47054;39.716;2.904;2022-10-16T17:24:16;10.98;;;3.63;;
61188;SDS011;47054;39.716;2.904;2022-10-16T17:27:02;11.95;;;3.65;;
61188;SDS011;47054;39.716;2.904;2022-10-16T17:29:49;9.82;;;3.47;;
61188;SDS011;47054;39.716;2.904;2022-10-16T17:32:35;8.20;;;3.28;;
61188;SDS011;47054;39.716;2.904;2022-10-16T17:35:19;7.30;;;3.38;;
61188;SDS011;47054;39.716;2.904;2022-10-16T17:38:04;6.50;;;3.35;;
61188;SDS011;47054;39.716;2.904;2022-10-16T17:40:48;7.97;;;3.10;;
61188;SDS011;47054;39.716;2.904;2022-10-16T17:43:33;6.45;;;3.05;;
61188;SDS011;47054;39.716;2.904;2022-10-16T17:46:18;9.73;;;3.38;;
61188;SDS011;47054;39.716;2.904;2022-10-16T17:49:04;5.63;;;3.03;;
61188;SDS011;47054;39.716;2.904;2022-10-16T17:51:49;8.02;;;2.60;;
61188;SDS011;47054;39.716;2.904;2022-10-16T17:54:35;7.25;;;2.80;;
61188;SDS011;47054;39.716;2.904;2022-10-16T17:57:19;9.20;;;3.08;;
61188;SDS011;47054;39.716;2.904;2022-10-16T18:00:04;5.97;;;2.65;;
61188;SDS011;47054;39.716;2.904;2022-10-16T18:02:49;14.02;;;3.47;;
61188;SDS011;47054;39.716;2.904;2022-10-16T18:05:36;10.75;;;3.05;;
61188;SDS011;47054;39.716;2.904;2022-10-16T18:08:21;12.68;;;3.47;;
61188;SDS011;47054;39.716;2.904;2022-10-16T18:11:06;16.20;;;2.83;;
61188;SDS011;47054;39.716;2.904;2022-10-16T18:13:53;7.50;;;2.92;;
61188;SDS011;47054;39.716;2.904;2022-10-16T18:16:38;10.18;;;3.38;;
61188;SDS011;47054;39.716;2.904;2022-10-16T18:19:24;9.95;;;3.67;;
61188;SDS011;47054;39.716;2.904;2022-10-16T18:22:09;9.18;;;3.80;;
61188;SDS011;47054;39.716;2.904;2022-10-16T18:24:54;16.45;;;3.90;;
61188;SDS011;47054;39.716;2.904;2022-10-16T18:27:39;7.25;;;2.88;;
61188;SDS011;47054;39.716;2.904;2022-10-16T18:30:24;10.85;;;3.10;;
61188;SDS011;47054;39.716;2.904;2022-10-16T18:33:09;7.35;;;3.08;;
61188;SDS011;47054;39.716;2.904;2022-10-16T18:35:53;9.75;;;3.13;;
61188;SDS011;47054;39.716;2.904;2022-10-16T18:38:38;10.23;;;2.97;;
61188;SDS011;47054;39.716;2.904;2022-10-16T18:41:25;6.90;;;2.90;;
61188;SDS011;47054;39.716;2.904;2022-10-16T18:44:12;6.80;;;2.38;;
61188;SDS011;47054;39.716;2.904;2022-10-16T18:46:57;7.68;;;2.95;;
61188;SDS011;47054;39.716;2.904;2022-10-16T18:49:42;6.95;;;3.05;;
61188;SDS011;47054;39.716;2.904;2022-10-16T18:52:27;5.38;;;2.83;;
61188;SDS011;47054;39.716;2.904;2022-10-16T18:55:11;11.13;;;2.97;;
61188;SDS011;47054;39.716;2.904;2022-10-16T18:57:57;10.80;;;3.10;;
61188;SDS011;47054;39.716;2.904;2022-10-16T19:00:42;6.53;;;2.70;;
61188;SDS011;47054;39.716;2.904;2022-10-16T19:03:28;6.95;;;3.10;;
61188;SDS011;47054;39.716;2.904;2022-10-16T19:06:13;7.43;;;3.03;;
61188;SDS011;47054;39.716;2.904;2022-10-16T19:08:59;11.27;;;3.08;;
61188;SDS011;47054;39.716;2.904;2022-10-16T19:11:47;5.60;;;2.80;;
61188;SDS011;47054;39.716;2.904;2022-10-16T19:14:32;6.68;;;2.85;;
61188;SDS011;47054;39.716;2.904;2022-10-16T19:17:17;9.27;;;3.17;;
61188;SDS011;47054;39.716;2.904;2022-10-16T19:20:03;8.25;;;3.10;;